Hayase Maru — JD2583 — position and weather

sailwx.info

Track history (hours):
 
Tides and Currents Weather Stations Pressure Air Temp Water Temp Dewpoint Dewpoint Depression Visibility Wind Speed Wind Dir Waves Ship Positions

Hayase Maru

Last reported at 2016-May-23 10:32 UTC. Time now 2016-May-31 23:44 UTC.
Position N 34°45' E 139°13'.
Warning: this ship's position is 8 days out of date.

Length 73 m; draft 4 m.

Type: Ship. MMSI: 431000395.

Date/timePositionNaut miles runAvg speedWind from/ knotsBaromVisibWave heightAir tempDewpointWater temp
2016-May-23 10:32N 34°45' E 139°13'1010.7
2016-May-23 09:33N 34°50' E 139°24'1110.9
2016-May-23 08:33N 34°51' E 139°38'2110.5
2016-May-23 06:30N 34°55' E 140°03'1010.2
2016-May-23 05:32N 35°00' E 140°13'13 9.4
2016-May-23 04:06N 35°08' E 140°26'7 9.0
2016-May-23 03:22N 35°13' E 140°31'910.8
2016-May-23 02:33N 35°21' E 140°37'1111.0
2016-May-23 01:32N 35°30' E 140°45'1210.8
2016-May-23 00:28N 35°40' E 140°53'9 9.6
2016-May-22 23:33N 35°49' E 140°52'1111.1
2016-May-22 22:33N 35°57' E 140°44'3 3.5
2016-May-22 21:33N 35°56' E 140°40'  
2016-May-20 15:26N 35°56' E 140°40'0 0.0
2016-May-20 14:33N 35°56' E 140°40'0 0.0
2016-May-20 13:33N 35°56' E 140°40'0 0.0
2016-May-20 12:33N 35°56' E 140°40'0 0.0
2016-May-20 11:33N 35°56' E 140°40'0 0.0
2016-May-20 10:33N 35°56' E 140°40'0 0.0
2016-May-20 09:33N 35°56' E 140°40'0 0.0
2016-May-20 08:33N 35°56' E 140°40'5 5.4
2016-May-20 07:32N 36°00' E 140°43'  
2016-May-17 22:31N 36°07' E 140°45'1111.2
2016-May-17 21:33N 35°56' E 140°42'2 2.0
2016-May-17 20:33N 35°55' E 140°40'0 0.0
2016-May-17 19:33N 35°55' E 140°40'0 0.0
2016-May-17 18:33N 35°55' E 140°40'0 0.0
2016-May-17 17:33N 35°55' E 140°40'0 0.0
2016-May-17 16:33N 35°55' E 140°40'0 0.0
2016-May-17 15:33N 35°55' E 140°40'0 0.0
2016-May-17 14:33N 35°55' E 140°40'0 0.0
2016-May-17 13:33N 35°55' E 140°40'0 0.0
2016-May-17 12:10N 35°55' E 140°40'0 0.0
2016-May-17 10:22N 35°55' E 140°40'0 0.0
2016-May-17 07:24N 35°55' E 140°40'0 0.0
2016-May-17 06:31N 35°55' E 140°40'0 0.0
2016-May-17 05:21N 35°55' E 140°40'0 0.0
2016-May-17 02:22N 35°55' E 140°40'0 0.0
2016-May-16 23:28N 35°55' E 140°40'0 0.0
2016-May-16 20:28N 35°55' E 140°40'0 0.0
2016-May-16 19:21N 35°55' E 140°40'0 0.0
2016-May-16 03:31N 35°55' E 140°40'0 0.0
2016-May-16 02:22N 35°55' E 140°40'0 0.0
2016-May-15 23:09N 35°55' E 140°40'0 0.0
2016-May-15 22:33N 35°55' E 140°40'6 5.6
2016-May-15 21:33N 35°60' E 140°43'1 0.9
2016-May-15 20:32N 35°59' E 140°42'0 0.0
2016-May-15 19:31N 35°59' E 140°42'0 0.0
2016-May-15 11:24N 35°59' E 140°42'  
Track history (hours):
 
Tides and Currents Weather Stations Pressure Air Temp Water Temp Dewpoint Dewpoint Depression Visibility Wind Speed Wind Dir Waves Ship Positions

Hayase Maru

Last reported at 2016-May-23 10:32 UTC. Time now 2016-May-31 23:44 UTC.
Position N 34°45' E 139°13'.
Warning: this ship's position is 8 days out of date.

Length 73 m; draft 4 m.

Type: Ship. MMSI: 431000395.

Date/timePositionNaut miles runAvg speedWind from/ knotsBaromVisibWave heightAir tempDewpointWater temp
2016-May-23 10:32N 34°45' E 139°13'1010.7
2016-May-23 09:33N 34°50' E 139°24'1110.9
2016-May-23 08:33N 34°51' E 139°38'2110.5
2016-May-23 06:30N 34°55' E 140°03'1010.2
2016-May-23 05:32N 35°00' E 140°13'13 9.4
2016-May-23 04:06N 35°08' E 140°26'7 9.0
2016-May-23 03:22N 35°13' E 140°31'910.8
2016-May-23 02:33N 35°21' E 140°37'1111.0
2016-May-23 01:32N 35°30' E 140°45'1210.8
2016-May-23 00:28N 35°40' E 140°53'9 9.6
2016-May-22 23:33N 35°49' E 140°52'1111.1
2016-May-22 22:33N 35°57' E 140°44'3 3.5
2016-May-22 21:33N 35°56' E 140°40'  
2016-May-20 15:26N 35°56' E 140°40'0 0.0
2016-May-20 14:33N 35°56' E 140°40'0 0.0
2016-May-20 13:33N 35°56' E 140°40'0 0.0
2016-May-20 12:33N 35°56' E 140°40'0 0.0
2016-May-20 11:33N 35°56' E 140°40'0 0.0
2016-May-20 10:33N 35°56' E 140°40'0 0.0
2016-May-20 09:33N 35°56' E 140°40'0 0.0
2016-May-20 08:33N 35°56' E 140°40'5 5.4
2016-May-20 07:32N 36°00' E 140°43'  
2016-May-17 22:31N 36°07' E 140°45'1111.2
2016-May-17 21:33N 35°56' E 140°42'2 2.0
2016-May-17 20:33N 35°55' E 140°40'0 0.0
2016-May-17 19:33N 35°55' E 140°40'0 0.0
2016-May-17 18:33N 35°55' E 140°40'0 0.0
2016-May-17 17:33N 35°55' E 140°40'0 0.0
2016-May-17 16:33N 35°55' E 140°40'0 0.0
2016-May-17 15:33N 35°55' E 140°40'0 0.0
2016-May-17 14:33N 35°55' E 140°40'0 0.0
2016-May-17 13:33N 35°55' E 140°40'0 0.0
2016-May-17 12:10N 35°55' E 140°40'0 0.0
2016-May-17 10:22N 35°55' E 140°40'0 0.0
2016-May-17 07:24N 35°55' E 140°40'0 0.0
2016-May-17 06:31N 35°55' E 140°40'0 0.0
2016-May-17 05:21N 35°55' E 140°40'0 0.0
2016-May-17 02:22N 35°55' E 140°40'0 0.0
2016-May-16 23:28N 35°55' E 140°40'0 0.0
2016-May-16 20:28N 35°55' E 140°40'0 0.0
2016-May-16 19:21N 35°55' E 140°40'0 0.0
2016-May-16 03:31N 35°55' E 140°40'0 0.0
2016-May-16 02:22N 35°55' E 140°40'0 0.0
2016-May-15 23:09N 35°55' E 140°40'0 0.0
2016-May-15 22:33N 35°55' E 140°40'6 5.6
2016-May-15 21:33N 35°60' E 140°43'1 0.9
2016-May-15 20:32N 35°59' E 140°42'0 0.0
2016-May-15 19:31N 35°59' E 140°42'0 0.0
2016-May-15 11:24N 35°59' E 140°42'  

Dump ship's entire track history